sensor_id;sensor_type;location;lat;lon;timestamp;P1;durP1;ratioP1;P2;durP2;ratioP2
67500;SDS011;54349;52.528;19.760;2023-04-09T00:01:22;7.50;;;4.10;;
67500;SDS011;54349;52.528;19.760;2023-04-09T00:03:52;6.30;;;3.90;;
67500;SDS011;54349;52.528;19.760;2023-04-09T00:06:28;6.30;;;4.10;;
67500;SDS011;54349;52.528;19.760;2023-04-09T00:08:58;7.00;;;4.10;;
67500;SDS011;54349;52.528;19.760;2023-04-09T00:11:29;7.10;;;3.90;;
67500;SDS011;54349;52.528;19.760;2023-04-09T00:13:59;5.60;;;3.70;;
67500;SDS011;54349;52.528;19.760;2023-04-09T00:16:27;6.50;;;4.10;;
67500;SDS011;54349;52.528;19.760;2023-04-09T00:18:57;7.30;;;4.30;;
67500;SDS011;54349;52.528;19.760;2023-04-09T00:21:26;6.70;;;4.00;;
67500;SDS011;54349;52.528;19.760;2023-04-09T00:23:55;6.30;;;3.70;;
67500;SDS011;54349;52.528;19.760;2023-04-09T00:26:24;5.40;;;3.50;;
67500;SDS011;54349;52.528;19.760;2023-04-09T00:28:53;5.40;;;3.60;;
67500;SDS011;54349;52.528;19.760;2023-04-09T00:31:22;6.10;;;3.60;;
67500;SDS011;54349;52.528;19.760;2023-04-09T00:33:51;7.20;;;4.00;;
67500;SDS011;54349;52.528;19.760;2023-04-09T00:36:20;6.90;;;4.20;;
67500;SDS011;54349;52.528;19.760;2023-04-09T00:38:49;6.50;;;4.10;;
67500;SDS011;54349;52.528;19.760;2023-04-09T00:41:22;5.90;;;3.70;;
67500;SDS011;54349;52.528;19.760;2023-04-09T00:43:51;6.50;;;4.00;;
67500;SDS011;54349;52.528;19.760;2023-04-09T00:46:19;6.50;;;4.00;;
67500;SDS011;54349;52.528;19.760;2023-04-09T00:48:49;7.10;;;4.60;;
67500;SDS011;54349;52.528;19.760;2023-04-09T00:51:20;7.60;;;4.20;;
67500;SDS011;54349;52.528;19.760;2023-04-09T00:53:49;7.70;;;4.20;;
67500;SDS011;54349;52.528;19.760;2023-04-09T00:56:20;8.10;;;5.00;;
67500;SDS011;54349;52.528;19.760;2023-04-09T00:58:54;6.70;;;4.30;;
67500;SDS011;54349;52.528;19.760;2023-04-09T01:01:23;7.10;;;4.90;;
67500;SDS011;54349;52.528;19.760;2023-04-09T01:03:53;7.20;;;4.50;;
67500;SDS011;54349;52.528;19.760;2023-04-09T01:09:27;8.00;;;5.00;;
67500;SDS011;54349;52.528;19.760;2023-04-09T01:15:10;8.60;;;4.90;;
67500;SDS011;54349;52.528;19.760;2023-04-09T01:17:55;7.50;;;4.80;;
67500;SDS011;54349;52.528;19.760;2023-04-09T01:21:13;8.40;;;5.10;;
67500;SDS011;54349;52.528;19.760;2023-04-09T01:27:05;9.10;;;4.90;;
67500;SDS011;54349;52.528;19.760;2023-04-09T01:29:47;8.40;;;5.20;;
67500;SDS011;54349;52.528;19.760;2023-04-09T01:32:22;8.00;;;5.30;;
67500;SDS011;54349;52.528;19.760;2023-04-09T01:34:53;7.20;;;4.70;;
67500;SDS011;54349;52.528;19.760;2023-04-09T01:37:24;8.20;;;5.20;;
67500;SDS011;54349;52.528;19.760;2023-04-09T01:39:55;8.90;;;5.50;;
67500;SDS011;54349;52.528;19.760;2023-04-09T01:42:24;8.00;;;5.60;;
67500;SDS011;54349;52.528;19.760;2023-04-09T01:44:54;8.20;;;5.30;;
67500;SDS011;54349;52.528;19.760;2023-04-09T01:47:23;8.60;;;5.40;;
67500;SDS011;54349;52.528;19.760;2023-04-09T01:49:55;8.40;;;5.40;;
67500;SDS011;54349;52.528;19.760;2023-04-09T01:52:40;9.50;;;6.20;;
67500;SDS011;54349;52.528;19.760;2023-04-09T01:55:11;7.50;;;5.30;;
67500;SDS011;54349;52.528;19.760;2023-04-09T01:57:44;8.80;;;5.00;;
67500;SDS011;54349;52.528;19.760;2023-04-09T02:00:14;8.00;;;5.50;;
67500;SDS011;54349;52.528;19.760;2023-04-09T02:03:05;8.70;;;5.90;;
67500;SDS011;54349;52.528;19.760;2023-04-09T02:05:45;9.30;;;6.20;;
67500;SDS011;54349;52.528;19.760;2023-04-09T02:08:21;8.70;;;6.00;;
67500;SDS011;54349;52.528;19.760;2023-04-09T02:10:57;9.30;;;6.00;;
67500;SDS011;54349;52.528;19.760;2023-04-09T02:13:30;8.40;;;6.00;;
67500;SDS011;54349;52.528;19.760;2023-04-09T02:16:03;9.50;;;5.90;;
67500;SDS011;54349;52.528;19.760;2023-04-09T02:18:35;8.80;;;6.00;;
67500;SDS011;54349;52.528;19.760;2023-04-09T02:21:04;10.00;;;6.80;;
67500;SDS011;54349;52.528;19.760;2023-04-09T02:23:33;9.30;;;5.80;;
67500;SDS011;54349;52.528;19.760;2023-04-09T02:26:05;10.90;;;6.40;;
67500;SDS011;54349;52.528;19.760;2023-04-09T02:28:35;9.60;;;6.50;;
67500;SDS011;54349;52.528;19.760;2023-04-09T02:31:04;10.20;;;6.70;;
67500;SDS011;54349;52.528;19.760;2023-04-09T02:33:33;10.60;;;7.00;;
67500;SDS011;54349;52.528;19.760;2023-04-09T02:36:02;8.80;;;6.20;;
67500;SDS011;54349;52.528;19.760;2023-04-09T02:38:31;11.50;;;7.50;;
67500;SDS011;54349;52.528;19.760;2023-04-09T02:41:00;10.50;;;7.00;;
67500;SDS011;54349;52.528;19.760;2023-04-09T02:43:29;10.80;;;7.30;;
67500;SDS011;54349;52.528;19.760;2023-04-09T02:45:58;10.30;;;7.00;;
67500;SDS011;54349;52.528;19.760;2023-04-09T02:48:27;10.50;;;7.30;;
67500;SDS011;54349;52.528;19.760;2023-04-09T02:50:57;11.10;;;7.10;;
67500;SDS011;54349;52.528;19.760;2023-04-09T02:53:29;9.80;;;6.70;;
67500;SDS011;54349;52.528;19.760;2023-04-09T02:55:58;9.40;;;7.10;;
67500;SDS011;54349;52.528;19.760;2023-04-09T02:58:26;10.40;;;7.30;;
67500;SDS011;54349;52.528;19.760;2023-04-09T03:00:55;10.50;;;7.30;;
67500;SDS011;54349;52.528;19.760;2023-04-09T03:03:23;9.00;;;6.80;;
67500;SDS011;54349;52.528;19.760;2023-04-09T03:05:53;10.30;;;7.30;;
67500;SDS011;54349;52.528;19.760;2023-04-09T03:08:25;11.10;;;7.70;;
67500;SDS011;54349;52.528;19.760;2023-04-09T03:10:53;10.70;;;7.50;;
67500;SDS011;54349;52.528;19.760;2023-04-09T03:13:26;10.70;;;7.20;;
67500;SDS011;54349;52.528;19.760;2023-04-09T03:15:55;10.90;;;7.40;;
67500;SDS011;54349;52.528;19.760;2023-04-09T03:18:26;11.60;;;7.40;;
67500;SDS011;54349;52.528;19.760;2023-04-09T03:20:54;10.10;;;7.10;;
67500;SDS011;54349;52.528;19.760;2023-04-09T03:23:25;10.80;;;7.70;;
67500;SDS011;54349;52.528;19.760;2023-04-09T03:26:04;11.40;;;7.40;;
67500;SDS011;54349;52.528;19.760;2023-04-09T03:28:46;11.80;;;7.20;;
67500;SDS011;54349;52.528;19.760;2023-04-09T03:31:28;11.50;;;7.80;;
67500;SDS011;54349;52.528;19.760;2023-04-09T03:34:01;11.70;;;7.60;;
67500;SDS011;54349;52.528;19.760;2023-04-09T03:36:31;10.10;;;7.10;;
67500;SDS011;54349;52.528;19.760;2023-04-09T03:39:08;10.60;;;6.90;;
67500;SDS011;54349;52.528;19.760;2023-04-09T03:41:39;10.80;;;7.40;;
67500;SDS011;54349;52.528;19.760;2023-04-09T03:44:11;10.70;;;7.90;;
67500;SDS011;54349;52.528;19.760;2023-04-09T03:46:48;10.70;;;7.20;;
67500;SDS011;54349;52.528;19.760;2023-04-09T03:49:17;10.50;;;7.60;;
67500;SDS011;54349;52.528;19.760;2023-04-09T03:51:46;9.60;;;7.10;;
67500;SDS011;54349;52.528;19.760;2023-04-09T03:54:15;11.40;;;7.70;;
67500;SDS011;54349;52.528;19.760;2023-04-09T03:56:45;10.10;;;7.40;;
67500;SDS011;54349;52.528;19.760;2023-04-09T03:59:16;11.20;;;7.40;;
67500;SDS011;54349;52.528;19.760;2023-04-09T04:01:48;10.00;;;7.30;;
67500;SDS011;54349;52.528;19.760;2023-04-09T04:04:20;11.00;;;7.10;;
67500;SDS011;54349;52.528;19.760;2023-04-09T04:06:55;11.00;;;7.20;;
67500;SDS011;54349;52.528;19.760;2023-04-09T04:09:49;10.50;;;7.30;;
67500;SDS011;54349;52.528;19.760;2023-04-09T04:12:19;10.40;;;7.20;;
67500;SDS011;54349;52.528;19.760;2023-04-09T04:15:04;11.90;;;7.70;;
67500;SDS011;54349;52.528;19.760;2023-04-09T04:17:39;11.90;;;7.70;;
67500;SDS011;54349;52.528;19.760;2023-04-09T04:20:17;10.20;;;7.00;;
67500;SDS011;54349;52.528;19.760;2023-04-09T04:22:54;10.30;;;7.10;;
67500;SDS011;54349;52.528;19.760;2023-04-09T04:25:23;10.70;;;7.40;;
67500;SDS011;54349;52.528;19.760;2023-04-09T04:27:53;11.30;;;6.90;;
67500;SDS011;54349;52.528;19.760;2023-04-09T04:30:26;10.10;;;7.10;;
67500;SDS011;54349;52.528;19.760;2023-04-09T04:33:01;10.40;;;7.20;;
67500;SDS011;54349;52.528;19.760;2023-04-09T04:35:35;10.30;;;7.60;;
67500;SDS011;54349;52.528;19.760;2023-04-09T04:38:05;11.20;;;7.40;;
67500;SDS011;54349;52.528;19.760;2023-04-09T04:40:36;10.70;;;7.70;;
67500;SDS011;54349;52.528;19.760;2023-04-09T04:43:05;11.40;;;7.90;;
67500;SDS011;54349;52.528;19.760;2023-04-09T04:45:39;9.70;;;6.90;;
67500;SDS011;54349;52.528;19.760;2023-04-09T04:48:11;10.80;;;7.50;;
67500;SDS011;54349;52.528;19.760;2023-04-09T04:50:43;9.90;;;6.90;;
67500;SDS011;54349;52.528;19.760;2023-04-09T04:53:16;9.70;;;7.10;;
67500;SDS011;54349;52.528;19.760;2023-04-09T04:55:49;9.80;;;7.00;;
67500;SDS011;54349;52.528;19.760;2023-04-09T04:58:24;11.20;;;7.30;;
67500;SDS011;54349;52.528;19.760;2023-04-09T05:00:56;9.90;;;6.70;;
67500;SDS011;54349;52.528;19.760;2023-04-09T05:03:25;9.90;;;6.70;;
67500;SDS011;54349;52.528;19.760;2023-04-09T05:06:11;10.90;;;7.00;;
67500;SDS011;54349;52.528;19.760;2023-04-09T05:08:44;11.00;;;7.50;;
67500;SDS011;54349;52.528;19.760;2023-04-09T05:11:15;9.90;;;7.50;;
67500;SDS011;54349;52.528;19.760;2023-04-09T05:13:48;11.30;;;7.20;;
67500;SDS011;54349;52.528;19.760;2023-04-09T05:16:24;10.90;;;7.60;;
67500;SDS011;54349;52.528;19.760;2023-04-09T05:19:01;10.70;;;7.10;;
67500;SDS011;54349;52.528;19.760;2023-04-09T05:21:35;10.00;;;7.30;;
67500;SDS011;54349;52.528;19.760;2023-04-09T05:24:08;9.90;;;6.80;;
67500;SDS011;54349;52.528;19.760;2023-04-09T05:26:40;10.00;;;6.70;;
67500;SDS011;54349;52.528;19.760;2023-04-09T05:29:13;11.30;;;7.40;;
67500;SDS011;54349;52.528;19.760;2023-04-09T05:31:47;10.40;;;6.90;;
67500;SDS011;54349;52.528;19.760;2023-04-09T05:34:26;11.00;;;7.20;;
67500;SDS011;54349;52.528;19.760;2023-04-09T05:36:58;10.80;;;7.20;;
67500;SDS011;54349;52.528;19.760;2023-04-09T05:39:33;9.50;;;7.00;;
67500;SDS011;54349;52.528;19.760;2023-04-09T05:42:09;10.10;;;6.50;;
67500;SDS011;54349;52.528;19.760;2023-04-09T05:44:53;10.30;;;6.70;;
67500;SDS011;54349;52.528;19.760;2023-04-09T05:47:29;10.10;;;6.80;;
67500;SDS011;54349;52.528;19.760;2023-04-09T05:50:17;11.00;;;7.10;;
67500;SDS011;54349;52.528;19.760;2023-04-09T05:52:55;10.40;;;6.40;;
67500;SDS011;54349;52.528;19.760;2023-04-09T05:55:40;11.00;;;7.00;;
67500;SDS011;54349;52.528;19.760;2023-04-09T05:58:16;9.20;;;6.90;;
67500;SDS011;54349;52.528;19.760;2023-04-09T06:00:51;9.70;;;6.70;;
67500;SDS011;54349;52.528;19.760;2023-04-09T06:03:39;10.00;;;6.70;;
67500;SDS011;54349;52.528;19.760;2023-04-09T06:06:16;11.30;;;7.10;;
67500;SDS011;54349;52.528;19.760;2023-04-09T06:08:48;9.60;;;6.50;;
67500;SDS011;54349;52.528;19.760;2023-04-09T06:11:24;9.50;;;5.90;;
67500;SDS011;54349;52.528;19.760;2023-04-09T06:14:01;9.60;;;6.50;;
67500;SDS011;54349;52.528;19.760;2023-04-09T06:16:32;10.70;;;6.80;;
67500;SDS011;54349;52.528;19.760;2023-04-09T06:19:03;10.70;;;6.50;;
67500;SDS011;54349;52.528;19.760;2023-04-09T06:21:39;8.90;;;6.50;;
67500;SDS011;54349;52.528;19.760;2023-04-09T06:24:09;8.20;;;6.00;;
67500;SDS011;54349;52.528;19.760;2023-04-09T06:26:39;10.00;;;6.50;;
67500;SDS011;54349;52.528;19.760;2023-04-09T06:29:12;10.10;;;6.70;;
67500;SDS011;54349;52.528;19.760;2023-04-09T06:31:44;9.30;;;6.50;;
67500;SDS011;54349;52.528;19.760;2023-04-09T06:34:16;9.50;;;6.90;;
67500;SDS011;54349;52.528;19.760;2023-04-09T06:36:45;10.60;;;6.80;;
67500;SDS011;54349;52.528;19.760;2023-04-09T06:39:16;10.00;;;6.40;;
67500;SDS011;54349;52.528;19.760;2023-04-09T06:41:44;10.10;;;6.60;;
67500;SDS011;54349;52.528;19.760;2023-04-09T06:44:26;9.30;;;6.30;;
67500;SDS011;54349;52.528;19.760;2023-04-09T06:46:54;9.10;;;6.10;;
67500;SDS011;54349;52.528;19.760;2023-04-09T06:49:23;9.80;;;6.50;;
67500;SDS011;54349;52.528;19.760;2023-04-09T06:51:51;10.20;;;6.50;;
67500;SDS011;54349;52.528;19.760;2023-04-09T06:54:20;10.20;;;6.60;;
67500;SDS011;54349;52.528;19.760;2023-04-09T06:56:48;9.50;;;6.20;;
67500;SDS011;54349;52.528;19.760;2023-04-09T06:59:17;9.10;;;6.20;;
67500;SDS011;54349;52.528;19.760;2023-04-09T07:01:45;8.20;;;5.80;;
67500;SDS011;54349;52.528;19.760;2023-04-09T07:04:14;8.30;;;5.90;;
67500;SDS011;54349;52.528;19.760;2023-04-09T07:06:43;9.60;;;6.10;;
67500;SDS011;54349;52.528;19.760;2023-04-09T07:09:14;11.40;;;6.80;;
67500;SDS011;54349;52.528;19.760;2023-04-09T07:11:44;9.70;;;6.30;;
67500;SDS011;54349;52.528;19.760;2023-04-09T07:14:15;9.90;;;6.30;;
67500;SDS011;54349;52.528;19.760;2023-04-09T07:16:44;11.20;;;6.70;;
67500;SDS011;54349;52.528;19.760;2023-04-09T07:19:15;10.90;;;6.50;;
67500;SDS011;54349;52.528;19.760;2023-04-09T07:21:43;11.10;;;6.30;;
67500;SDS011;54349;52.528;19.760;2023-04-09T07:24:12;10.10;;;6.10;;
67500;SDS011;54349;52.528;19.760;2023-04-09T07:26:40;9.80;;;6.30;;
67500;SDS011;54349;52.528;19.760;2023-04-09T07:29:09;10.20;;;6.20;;
67500;SDS011;54349;52.528;19.760;2023-04-09T07:31:38;10.70;;;6.40;;
67500;SDS011;54349;52.528;19.760;2023-04-09T07:34:07;10.80;;;6.60;;
67500;SDS011;54349;52.528;19.760;2023-04-09T07:36:39;10.40;;;5.90;;
67500;SDS011;54349;52.528;19.760;2023-04-09T07:39:12;11.20;;;6.40;;
67500;SDS011;54349;52.528;19.760;2023-04-09T07:41:41;11.70;;;6.50;;
67500;SDS011;54349;52.528;19.760;2023-04-09T07:44:09;11.10;;;6.70;;
67500;SDS011;54349;52.528;19.760;2023-04-09T07:46:38;13.40;;;6.70;;
67500;SDS011;54349;52.528;19.760;2023-04-09T07:49:06;10.00;;;6.50;;
67500;SDS011;54349;52.528;19.760;2023-04-09T07:51:35;10.80;;;7.00;;
67500;SDS011;54349;52.528;19.760;2023-04-09T07:54:05;10.20;;;6.70;;
67500;SDS011;54349;52.528;19.760;2023-04-09T07:56:34;10.80;;;6.50;;
67500;SDS011;54349;52.528;19.760;2023-04-09T07:59:02;12.10;;;6.60;;
67500;SDS011;54349;52.528;19.760;2023-04-09T08:01:30;10.50;;;6.60;;
67500;SDS011;54349;52.528;19.760;2023-04-09T08:03:58;9.80;;;6.20;;
67500;SDS011;54349;52.528;19.760;2023-04-09T08:06:27;11.00;;;6.20;;
67500;SDS011;54349;52.528;19.760;2023-04-09T08:08:56;9.70;;;6.40;;
67500;SDS011;54349;52.528;19.760;2023-04-09T08:11:25;10.20;;;6.60;;
67500;SDS011;54349;52.528;19.760;2023-04-09T08:13:55;11.30;;;6.60;;
67500;SDS011;54349;52.528;19.760;2023-04-09T08:16:25;10.30;;;6.50;;
67500;SDS011;54349;52.528;19.760;2023-04-09T08:18:55;11.90;;;6.70;;
67500;SDS011;54349;52.528;19.760;2023-04-09T08:21:23;11.70;;;7.20;;
67500;SDS011;54349;52.528;19.760;2023-04-09T08:23:52;12.20;;;6.90;;
67500;SDS011;54349;52.528;19.760;2023-04-09T08:26:29;10.70;;;6.50;;
67500;SDS011;54349;52.528;19.760;2023-04-09T08:28:57;12.60;;;6.60;;
67500;SDS011;54349;52.528;19.760;2023-04-09T08:31:26;12.50;;;6.90;;
67500;SDS011;54349;52.528;19.760;2023-04-09T08:33:54;12.10;;;7.20;;
67500;SDS011;54349;52.528;19.760;2023-04-09T08:36:23;12.90;;;6.50;;
67500;SDS011;54349;52.528;19.760;2023-04-09T08:38:54;10.00;;;6.80;;
67500;SDS011;54349;52.528;19.760;2023-04-09T08:41:25;12.00;;;6.80;;
67500;SDS011;54349;52.528;19.760;2023-04-09T08:43:58;10.70;;;6.30;;
67500;SDS011;54349;52.528;19.760;2023-04-09T08:46:28;13.50;;;7.10;;
67500;SDS011;54349;52.528;19.760;2023-04-09T08:49:00;10.90;;;6.90;;
67500;SDS011;54349;52.528;19.760;2023-04-09T08:51:29;9.80;;;6.50;;
67500;SDS011;54349;52.528;19.760;2023-04-09T08:53:59;12.40;;;7.10;;
67500;SDS011;54349;52.528;19.760;2023-04-09T08:56:31;11.40;;;6.50;;
67500;SDS011;54349;52.528;19.760;2023-04-09T08:59:00;10.90;;;6.80;;
67500;SDS011;54349;52.528;19.760;2023-04-09T09:01:30;8.90;;;6.20;;
67500;SDS011;54349;52.528;19.760;2023-04-09T09:04:04;13.90;;;7.40;;
67500;SDS011;54349;52.528;19.760;2023-04-09T09:06:38;10.60;;;6.50;;
67500;SDS011;54349;52.528;19.760;2023-04-09T09:09:12;10.60;;;6.90;;
67500;SDS011;54349;52.528;19.760;2023-04-09T09:11:47;10.90;;;6.10;;
67500;SDS011;54349;52.528;19.760;2023-04-09T09:14:19;12.30;;;7.20;;
67500;SDS011;54349;52.528;19.760;2023-04-09T09:21:59;11.00;;;6.70;;
67500;SDS011;54349;52.528;19.760;2023-04-09T09:27:00;12.00;;;6.90;;
67500;SDS011;54349;52.528;19.760;2023-04-09T09:29:29;10.50;;;6.50;;
67500;SDS011;54349;52.528;19.760;2023-04-09T09:31:58;10.10;;;6.60;;
67500;SDS011;54349;52.528;19.760;2023-04-09T09:34:27;10.60;;;6.50;;
67500;SDS011;54349;52.528;19.760;2023-04-09T09:36:56;10.50;;;6.60;;
67500;SDS011;54349;52.528;19.760;2023-04-09T09:39:41;12.30;;;7.60;;
67500;SDS011;54349;52.528;19.760;2023-04-09T09:42:13;10.30;;;6.70;;
67500;SDS011;54349;52.528;19.760;2023-04-09T09:44:41;11.50;;;6.30;;
67500;SDS011;54349;52.528;19.760;2023-04-09T09:47:11;10.90;;;6.80;;
67500;SDS011;54349;52.528;19.760;2023-04-09T09:49:43;10.80;;;6.70;;
67500;SDS011;54349;52.528;19.760;2023-04-09T09:52:12;11.10;;;6.50;;
67500;SDS011;54349;52.528;19.760;2023-04-09T09:54:47;9.90;;;6.40;;
67500;SDS011;54349;52.528;19.760;2023-04-09T09:57:20;9.80;;;6.10;;
67500;SDS011;54349;52.528;19.760;2023-04-09T09:59:56;9.90;;;6.50;;
67500;SDS011;54349;52.528;19.760;2023-04-09T10:02:43;10.40;;;6.40;;
67500;SDS011;54349;52.528;19.760;2023-04-09T10:05:20;9.70;;;6.30;;
67500;SDS011;54349;52.528;19.760;2023-04-09T10:07:56;9.50;;;6.30;;
67500;SDS011;54349;52.528;19.760;2023-04-09T10:10:26;10.10;;;6.30;;
67500;SDS011;54349;52.528;19.760;2023-04-09T10:12:55;9.80;;;6.10;;
67500;SDS011;54349;52.528;19.760;2023-04-09T10:15:27;10.90;;;6.70;;
67500;SDS011;54349;52.528;19.760;2023-04-09T10:17:56;12.20;;;6.50;;
67500;SDS011;54349;52.528;19.760;2023-04-09T10:20:39;11.20;;;7.20;;
67500;SDS011;54349;52.528;19.760;2023-04-09T10:23:21;10.70;;;6.80;;
67500;SDS011;54349;52.528;19.760;2023-04-09T10:25:58;11.20;;;7.00;;
67500;SDS011;54349;52.528;19.760;2023-04-09T10:28:26;10.60;;;6.70;;
67500;SDS011;54349;52.528;19.760;2023-04-09T10:30:54;10.70;;;7.10;;
67500;SDS011;54349;52.528;19.760;2023-04-09T10:33:24;9.80;;;6.50;;
67500;SDS011;54349;52.528;19.760;2023-04-09T10:35:59;9.50;;;6.50;;
67500;SDS011;54349;52.528;19.760;2023-04-09T10:38:34;10.40;;;6.50;;
67500;SDS011;54349;52.528;19.760;2023-04-09T10:41:08;10.40;;;7.00;;
67500;SDS011;54349;52.528;19.760;2023-04-09T10:43:46;11.50;;;6.70;;
67500;SDS011;54349;52.528;19.760;2023-04-09T10:46:35;10.70;;;6.90;;
67500;SDS011;54349;52.528;19.760;2023-04-09T10:49:11;10.60;;;7.00;;
67500;SDS011;54349;52.528;19.760;2023-04-09T10:51:51;11.30;;;7.00;;
67500;SDS011;54349;52.528;19.760;2023-04-09T10:59:39;11.20;;;7.20;;
67500;SDS011;54349;52.528;19.760;2023-04-09T11:05:25;10.30;;;7.00;;
67500;SDS011;54349;52.528;19.760;2023-04-09T11:08:03;11.40;;;7.00;;
67500;SDS011;54349;52.528;19.760;2023-04-09T11:10:41;10.30;;;7.10;;
67500;SDS011;54349;52.528;19.760;2023-04-09T11:13:19;10.70;;;7.00;;
67500;SDS011;54349;52.528;19.760;2023-04-09T11:15:48;9.40;;;6.90;;
67500;SDS011;54349;52.528;19.760;2023-04-09T11:18:22;9.90;;;6.80;;
67500;SDS011;54349;52.528;19.760;2023-04-09T11:20:59;10.40;;;6.80;;
67500;SDS011;54349;52.528;19.760;2023-04-09T11:23:32;11.00;;;7.20;;
67500;SDS011;54349;52.528;19.760;2023-04-09T11:26:03;10.40;;;7.20;;
67500;SDS011;54349;52.528;19.760;2023-04-09T11:28:33;10.70;;;6.70;;
67500;SDS011;54349;52.528;19.760;2023-04-09T11:31:04;9.10;;;6.60;;
67500;SDS011;54349;52.528;19.760;2023-04-09T11:33:34;12.30;;;7.20;;
67500;SDS011;54349;52.528;19.760;2023-04-09T11:36:08;9.60;;;7.00;;
67500;SDS011;54349;52.528;19.760;2023-04-09T11:38:38;10.40;;;7.10;;
67500;SDS011;54349;52.528;19.760;2023-04-09T11:41:08;9.80;;;6.90;;
67500;SDS011;54349;52.528;19.760;2023-04-09T11:43:40;9.00;;;6.70;;
67500;SDS011;54349;52.528;19.760;2023-04-09T11:46:09;9.30;;;7.10;;
67500;SDS011;54349;52.528;19.760;2023-04-09T11:48:39;10.40;;;7.10;;
67500;SDS011;54349;52.528;19.760;2023-04-09T11:51:10;9.80;;;7.00;;
67500;SDS011;54349;52.528;19.760;2023-04-09T11:53:38;11.10;;;7.00;;
67500;SDS011;54349;52.528;19.760;2023-04-09T11:56:07;9.90;;;7.00;;
67500;SDS011;54349;52.528;19.760;2023-04-09T11:58:36;9.10;;;6.30;;
67500;SDS011;54349;52.528;19.760;2023-04-09T12:01:04;10.50;;;6.80;;
67500;SDS011;54349;52.528;19.760;2023-04-09T12:03:34;9.80;;;6.70;;
67500;SDS011;54349;52.528;19.760;2023-04-09T12:06:06;10.30;;;6.80;;
67500;SDS011;54349;52.528;19.760;2023-04-09T12:08:36;9.80;;;6.90;;
67500;SDS011;54349;52.528;19.760;2023-04-09T12:11:12;11.70;;;7.30;;
67500;SDS011;54349;52.528;19.760;2023-04-09T12:13:42;10.40;;;6.70;;
67500;SDS011;54349;52.528;19.760;2023-04-09T12:16:12;9.90;;;7.00;;
67500;SDS011;54349;52.528;19.760;2023-04-09T12:18:42;10.80;;;6.70;;
67500;SDS011;54349;52.528;19.760;2023-04-09T12:21:11;10.20;;;6.50;;
67500;SDS011;54349;52.528;19.760;2023-04-09T12:23:40;9.20;;;6.60;;
67500;SDS011;54349;52.528;19.760;2023-04-09T12:26:08;10.20;;;6.90;;
67500;SDS011;54349;52.528;19.760;2023-04-09T12:28:37;9.60;;;7.10;;
67500;SDS011;54349;52.528;19.760;2023-04-09T12:31:09;10.70;;;7.20;;
67500;SDS011;54349;52.528;19.760;2023-04-09T12:33:38;10.00;;;7.00;;
67500;SDS011;54349;52.528;19.760;2023-04-09T12:36:07;10.50;;;7.20;;
67500;SDS011;54349;52.528;19.760;2023-04-09T12:38:35;9.00;;;6.50;;
67500;SDS011;54349;52.528;19.760;2023-04-09T12:41:04;10.00;;;6.80;;
67500;SDS011;54349;52.528;19.760;2023-04-09T12:43:35;10.20;;;6.80;;
67500;SDS011;54349;52.528;19.760;2023-04-09T12:46:04;8.20;;;6.20;;
67500;SDS011;54349;52.528;19.760;2023-04-09T12:48:33;9.20;;;6.20;;
67500;SDS011;54349;52.528;19.760;2023-04-09T12:51:02;9.50;;;6.40;;
67500;SDS011;54349;52.528;19.760;2023-04-09T12:53:32;9.90;;;6.50;;
67500;SDS011;54349;52.528;19.760;2023-04-09T12:56:04;10.80;;;6.30;;
67500;SDS011;54349;52.528;19.760;2023-04-09T12:58:36;9.30;;;7.00;;
67500;SDS011;54349;52.528;19.760;2023-04-09T13:01:06;12.00;;;6.60;;
67500;SDS011;54349;52.528;19.760;2023-04-09T13:03:34;10.40;;;6.30;;
67500;SDS011;54349;52.528;19.760;2023-04-09T13:06:04;9.40;;;6.90;;
67500;SDS011;54349;52.528;19.760;2023-04-09T13:08:40;10.60;;;6.70;;
67500;SDS011;54349;52.528;19.760;2023-04-09T13:11:10;9.90;;;6.30;;
67500;SDS011;54349;52.528;19.760;2023-04-09T13:13:38;9.70;;;6.70;;
67500;SDS011;54349;52.528;19.760;2023-04-09T13:16:09;10.10;;;6.40;;
67500;SDS011;54349;52.528;19.760;2023-04-09T13:18:37;11.00;;;6.80;;
67500;SDS011;54349;52.528;19.760;2023-04-09T13:21:05;9.60;;;6.10;;
67500;SDS011;54349;52.528;19.760;2023-04-09T13:23:35;9.90;;;6.50;;
67500;SDS011;54349;52.528;19.760;2023-04-09T13:26:03;9.70;;;6.70;;
67500;SDS011;54349;52.528;19.760;2023-04-09T13:28:32;8.80;;;6.60;;
67500;SDS011;54349;52.528;19.760;2023-04-09T13:31:01;10.00;;;6.40;;
67500;SDS011;54349;52.528;19.760;2023-04-09T13:33:29;9.30;;;6.20;;
67500;SDS011;54349;52.528;19.760;2023-04-09T13:35:58;9.40;;;6.20;;
67500;SDS011;54349;52.528;19.760;2023-04-09T13:38:26;10.40;;;6.70;;
67500;SDS011;54349;52.528;19.760;2023-04-09T13:40:55;9.20;;;6.10;;
67500;SDS011;54349;52.528;19.760;2023-04-09T13:43:25;10.70;;;6.60;;
67500;SDS011;54349;52.528;19.760;2023-04-09T13:45:55;8.70;;;6.00;;
67500;SDS011;54349;52.528;19.760;2023-04-09T13:48:24;9.50;;;6.20;;
67500;SDS011;54349;52.528;19.760;2023-04-09T13:50:52;10.00;;;6.10;;
67500;SDS011;54349;52.528;19.760;2023-04-09T13:53:21;9.70;;;6.40;;
67500;SDS011;54349;52.528;19.760;2023-04-09T13:55:53;8.90;;;6.10;;
67500;SDS011;54349;52.528;19.760;2023-04-09T13:58:24;9.20;;;6.00;;
67500;SDS011;54349;52.528;19.760;2023-04-09T14:00:55;9.10;;;6.20;;
67500;SDS011;54349;52.528;19.760;2023-04-09T14:03:24;9.80;;;6.10;;
67500;SDS011;54349;52.528;19.760;2023-04-09T14:05:54;9.20;;;6.10;;
67500;SDS011;54349;52.528;19.760;2023-04-09T14:08:24;9.20;;;6.10;;
67500;SDS011;54349;52.528;19.760;2023-04-09T14:10:52;10.30;;;6.30;;
67500;SDS011;54349;52.528;19.760;2023-04-09T14:13:21;9.30;;;6.00;;
67500;SDS011;54349;52.528;19.760;2023-04-09T14:15:49;9.00;;;6.00;;
67500;SDS011;54349;52.528;19.760;2023-04-09T14:18:17;8.70;;;6.10;;
67500;SDS011;54349;52.528;19.760;2023-04-09T14:20:46;8.90;;;6.00;;
67500;SDS011;54349;52.528;19.760;2023-04-09T14:23:14;9.60;;;6.30;;
67500;SDS011;54349;52.528;19.760;2023-04-09T14:25:43;9.30;;;6.50;;
67500;SDS011;54349;52.528;19.760;2023-04-09T14:28:12;9.10;;;5.80;;
67500;SDS011;54349;52.528;19.760;2023-04-09T14:30:42;9.10;;;6.30;;
67500;SDS011;54349;52.528;19.760;2023-04-09T14:33:11;8.00;;;5.80;;
67500;SDS011;54349;52.528;19.760;2023-04-09T14:35:40;10.40;;;6.20;;
67500;SDS011;54349;52.528;19.760;2023-04-09T14:38:08;9.50;;;6.10;;
67500;SDS011;54349;52.528;19.760;2023-04-09T14:40:37;8.90;;;6.10;;
67500;SDS011;54349;52.528;19.760;2023-04-09T14:43:05;8.80;;;5.70;;
67500;SDS011;54349;52.528;19.760;2023-04-09T14:45:34;8.70;;;6.00;;
67500;SDS011;54349;52.528;19.760;2023-04-09T14:48:03;9.30;;;6.10;;
67500;SDS011;54349;52.528;19.760;2023-04-09T14:50:34;9.50;;;6.00;;
67500;SDS011;54349;52.528;19.760;2023-04-09T14:53:03;9.70;;;6.10;;
67500;SDS011;54349;52.528;19.760;2023-04-09T14:55:32;8.60;;;5.90;;
67500;SDS011;54349;52.528;19.760;2023-04-09T14:58:01;8.90;;;5.90;;
67500;SDS011;54349;52.528;19.760;2023-04-09T15:00:31;7.70;;;5.10;;
67500;SDS011;54349;52.528;19.760;2023-04-09T15:03:01;8.70;;;5.80;;
67500;SDS011;54349;52.528;19.760;2023-04-09T15:05:30;9.20;;;6.00;;
67500;SDS011;54349;52.528;19.760;2023-04-09T15:07:59;9.30;;;5.80;;
67500;SDS011;54349;52.528;19.760;2023-04-09T15:10:28;9.00;;;5.70;;
67500;SDS011;54349;52.528;19.760;2023-04-09T15:12:56;9.80;;;6.10;;
67500;SDS011;54349;52.528;19.760;2023-04-09T15:15:25;8.70;;;5.90;;
67500;SDS011;54349;52.528;19.760;2023-04-09T15:17:54;8.70;;;5.60;;
67500;SDS011;54349;52.528;19.760;2023-04-09T15:20:22;8.30;;;5.80;;